createdAt,value
2023-05-23T00:01:00.043Z,47.60
2023-05-23T00:03:49.770Z,47.70
2023-05-23T00:06:39.296Z,47.90
2023-05-23T00:09:28.836Z,48.10
2023-05-23T00:12:18.363Z,48.30
2023-05-23T00:15:09.978Z,48.40
2023-05-23T00:18:01.384Z,48.80
2023-05-23T00:20:51.962Z,49.00
2023-05-23T00:23:42.352Z,49.10
2023-05-23T00:26:31.868Z,49.20
2023-05-23T00:29:21.348Z,49.50
2023-05-23T00:32:11.284Z,49.80
2023-05-23T00:35:02.124Z,50.00
2023-05-23T00:37:51.919Z,50.40
2023-05-23T00:40:41.432Z,50.60
2023-05-23T00:43:31.927Z,50.80
2023-05-23T00:46:21.712Z,50.80
2023-05-23T00:49:11.496Z,51.00
2023-05-23T00:52:04.730Z,51.20
2023-05-23T00:54:54.095Z,51.30
2023-05-23T00:57:44.629Z,51.40
2023-05-23T01:00:35.892Z,51.40
2023-05-23T01:03:28.771Z,51.60
2023-05-23T01:06:18.679Z,51.80
2023-05-23T01:09:09.825Z,51.70
2023-05-23T01:12:13.870Z,51.80
2023-05-23T01:15:08.806Z,52.20
2023-05-23T01:18:04.541Z,51.80
2023-05-23T01:20:57.100Z,52.00
2023-05-23T01:24:36.700Z,51.80
2023-05-23T01:27:52.784Z,52.60
2023-05-23T01:30:44.820Z,52.30
2023-05-23T01:33:35.109Z,52.10
2023-05-23T01:36:24.730Z,52.20
2023-05-23T01:39:14.795Z,52.50
2023-05-23T01:42:04.569Z,52.60
2023-05-23T01:44:59.353Z,52.90
2023-05-23T01:47:52.530Z,53.40
2023-05-23T01:50:45.507Z,53.80
2023-05-23T01:53:35.914Z,53.90
2023-05-23T01:56:27.199Z,54.30
2023-05-23T01:59:16.694Z,54.10
2023-05-23T02:02:08.073Z,54.30
2023-05-23T02:04:58.351Z,54.40
2023-05-23T02:07:47.879Z,54.10
2023-05-23T02:10:40.070Z,54.50
2023-05-23T02:13:29.434Z,54.70
2023-05-23T02:16:18.827Z,54.80
2023-05-23T02:19:09.626Z,54.80
2023-05-23T02:21:58.977Z,54.90
2023-05-23T02:24:48.342Z,54.90
2023-05-23T02:27:37.749Z,54.90
2023-05-23T02:30:27.713Z,55.10
2023-05-23T02:33:17.952Z,55.10
2023-05-23T02:36:09.214Z,55.10
2023-05-23T02:38:58.663Z,55.30
2023-05-23T02:41:48.094Z,55.30
2023-05-23T02:44:38.245Z,55.30
2023-05-23T02:47:27.635Z,55.40
2023-05-23T02:50:17.251Z,55.30
2023-05-23T02:53:07.989Z,55.30
2023-05-23T02:55:57.419Z,55.30
2023-05-23T02:58:46.954Z,55.10
2023-05-23T03:01:36.279Z,55.20
2023-05-23T03:04:25.727Z,55.30
2023-05-23T03:07:27.566Z,55.40
2023-05-23T03:10:19.675Z,55.60
2023-05-23T03:13:09.078Z,55.80
2023-05-23T03:15:58.906Z,55.80
2023-05-23T03:18:48.358Z,56.00
2023-05-23T03:21:38.446Z,56.00
2023-05-23T03:24:27.994Z,56.00
2023-05-23T03:27:18.796Z,56.00
2023-05-23T03:30:10.171Z,56.10
2023-05-23T03:32:59.793Z,56.20
2023-05-23T03:35:49.280Z,56.20
2023-05-23T03:38:38.648Z,56.30
2023-05-23T03:41:28.285Z,56.40
2023-05-23T03:44:22.256Z,56.50
2023-05-23T03:47:12.282Z,56.60
2023-05-23T03:50:05.847Z,56.60
2023-05-23T03:52:56.432Z,56.70
2023-05-23T03:55:46.537Z,56.70
2023-05-23T03:58:35.957Z,56.70
2023-05-23T04:01:32.853Z,56.80
2023-05-23T04:04:23.030Z,56.80
2023-05-23T04:07:12.612Z,56.80
2023-05-23T04:10:05.004Z,56.90
2023-05-23T04:12:54.556Z,56.90
2023-05-23T04:15:46.009Z,57.00
2023-05-23T04:18:39.257Z,57.00
2023-05-23T04:21:29.810Z,57.10
2023-05-23T04:24:31.248Z,57.00
2023-05-23T04:27:22.323Z,57.20
2023-05-23T04:30:13.009Z,57.20
2023-05-23T04:33:06.388Z,57.50
2023-05-23T04:35:57.334Z,57.50
2023-05-23T04:38:47.345Z,57.60
2023-05-23T04:41:36.879Z,57.60
2023-05-23T04:44:57.454Z,57.60
2023-05-23T04:48:05.543Z,57.70
2023-05-23T04:51:07.878Z,57.90
2023-05-23T04:54:00.930Z,58.10
2023-05-23T04:56:53.844Z,58.00
2023-05-23T04:59:44.048Z,58.20
2023-05-23T05:02:35.345Z,58.10
2023-05-23T05:05:24.826Z,58.20
2023-05-23T05:08:15.625Z,58.20
2023-05-23T05:11:05.957Z,58.50
2023-05-23T05:13:55.698Z,58.50
2023-05-23T05:16:46.159Z,58.50
2023-05-23T05:19:35.883Z,58.60
2023-05-23T05:22:25.841Z,58.60
2023-05-23T05:25:16.732Z,58.80
2023-05-23T05:28:06.539Z,59.00
2023-05-23T05:31:05.300Z,59.10
2023-05-23T05:33:57.691Z,59.30
2023-05-23T05:36:48.153Z,59.30
2023-05-23T05:39:39.652Z,59.50
2023-05-23T05:42:30.576Z,59.60
2023-05-23T05:45:20.591Z,59.80
2023-05-23T05:48:11.872Z,59.60
2023-05-23T05:51:03.378Z,59.40
2023-05-23T05:53:55.652Z,59.40
2023-05-23T05:56:45.840Z,59.40
2023-05-23T05:59:37.230Z,59.70
2023-05-23T06:02:26.853Z,60.00
2023-05-23T06:05:17.079Z,60.20
2023-05-23T06:08:07.821Z,60.20
2023-05-23T06:10:57.549Z,60.00
2023-05-23T06:13:48.730Z,59.60
2023-05-23T06:16:40.788Z,59.30
2023-05-23T06:19:30.689Z,59.20
2023-05-23T06:22:21.976Z,58.80
2023-05-23T06:25:12.080Z,58.70
2023-05-23T06:28:01.406Z,58.70
2023-05-23T06:30:52.522Z,58.70
2023-05-23T06:33:43.435Z,58.80
2023-05-23T06:36:33.487Z,59.00
2023-05-23T06:39:22.985Z,58.90
2023-05-23T06:42:12.400Z,58.90
2023-05-23T06:45:17.502Z,59.10
2023-05-23T06:48:07.054Z,59.10
2023-05-23T06:51:00.323Z,59.00
2023-05-23T06:53:50.591Z,58.90
2023-05-23T06:56:40.128Z,58.80
2023-05-23T06:59:29.673Z,59.10
2023-05-23T07:02:19.030Z,59.30
2023-05-23T07:05:10.632Z,59.50
2023-05-23T07:08:11.902Z,59.40
2023-05-23T07:11:04.892Z,59.10
2023-05-23T07:14:01.428Z,58.80
2023-05-23T07:17:03.632Z,58.50
2023-05-23T07:19:53.244Z,58.30
2023-05-23T07:22:43.251Z,58.10
2023-05-23T07:25:34.177Z,58.20
2023-05-23T07:28:25.171Z,58.20
2023-05-23T07:31:15.897Z,58.20
2023-05-23T07:34:06.219Z,58.10
2023-05-23T07:37:02.863Z,58.10
2023-05-23T07:40:02.623Z,57.90
2023-05-23T07:42:54.266Z,58.00
2023-05-23T07:45:43.645Z,58.50
2023-05-23T07:48:33.092Z,59.20
2023-05-23T07:51:22.929Z,60.20
2023-05-23T07:54:16.380Z,61.40
2023-05-23T07:57:07.481Z,62.20
2023-05-23T07:59:59.632Z,62.40
2023-05-23T08:02:51.089Z,62.00
2023-05-23T08:05:48.388Z,61.40
2023-05-23T08:08:38.019Z,60.60
2023-05-23T08:11:30.455Z,59.90
2023-05-23T08:14:20.009Z,59.40
2023-05-23T08:17:31.035Z,59.10
2023-05-23T08:20:20.836Z,58.70
2023-05-23T08:23:12.083Z,58.40
2023-05-23T08:26:01.533Z,58.40
2023-05-23T08:28:51.327Z,58.20
2023-05-23T08:31:41.356Z,58.10
2023-05-23T08:34:33.408Z,58.00
2023-05-23T08:37:22.839Z,57.90
2023-05-23T08:40:16.628Z,58.00
2023-05-23T08:43:10.453Z,58.00
2023-05-23T08:46:00.122Z,57.90
2023-05-23T08:48:54.866Z,57.90
2023-05-23T08:51:48.379Z,57.90
2023-05-23T08:54:44.354Z,58.00
2023-05-23T08:57:38.068Z,57.90
2023-05-23T09:00:45.096Z,57.80
2023-05-23T09:03:37.656Z,57.80
2023-05-23T09:07:05.579Z,57.80
2023-05-23T09:09:55.371Z,58.20
2023-05-23T09:12:45.888Z,58.30
2023-05-23T09:15:35.377Z,58.20
2023-05-23T09:18:27.206Z,58.30
2023-05-23T09:21:16.765Z,58.20
2023-05-23T09:24:16.571Z,58.30
2023-05-23T09:27:08.166Z,58.20
2023-05-23T09:29:57.792Z,58.10
2023-05-23T09:33:04.742Z,58.10
2023-05-23T09:35:55.932Z,58.50
2023-05-23T09:38:48.804Z,58.10
2023-05-23T09:41:39.582Z,58.20
2023-05-23T09:44:29.937Z,58.20
2023-05-23T09:47:19.688Z,58.30
2023-05-23T09:50:14.595Z,58.50
2023-05-23T09:53:03.977Z,58.70
2023-05-23T09:55:54.060Z,58.70
2023-05-23T09:58:48.787Z,59.10
2023-05-23T10:01:38.638Z,59.30
2023-05-23T10:04:32.790Z,59.30
2023-05-23T10:07:23.571Z,59.30
2023-05-23T10:10:14.701Z,58.80
2023-05-23T10:13:05.774Z,58.70
2023-05-23T10:16:01.613Z,58.50
2023-05-23T10:18:56.670Z,58.70
2023-05-23T10:21:51.000Z,59.30
2023-05-23T10:24:40.584Z,58.90
2023-05-23T10:27:30.274Z,59.10
2023-05-23T10:30:21.750Z,59.40
2023-05-23T10:33:14.165Z,59.60
2023-05-23T10:36:12.375Z,60.10
2023-05-23T10:39:11.125Z,60.60
2023-05-23T10:42:07.249Z,60.90
2023-05-23T10:45:16.721Z,61.30
2023-05-23T10:48:23.893Z,61.60
2023-05-23T10:51:15.359Z,61.40
2023-05-23T10:54:13.197Z,60.80
2023-05-23T10:57:06.895Z,60.60
2023-05-23T10:59:56.398Z,60.20
2023-05-23T11:02:56.516Z,59.70
2023-05-23T11:05:54.577Z,59.80
2023-05-23T11:08:48.950Z,59.70
2023-05-23T11:12:02.771Z,59.20
2023-05-23T11:14:56.088Z,59.50
2023-05-23T11:17:54.113Z,59.30
2023-05-23T11:20:47.550Z,59.40
2023-05-23T11:23:45.018Z,59.30
2023-05-23T11:26:34.525Z,59.20
2023-05-23T11:29:25.385Z,59.10
2023-05-23T11:32:17.663Z,59.20
2023-05-23T11:35:10.156Z,59.40
2023-05-23T11:37:59.687Z,60.20
2023-05-23T11:40:50.472Z,59.60
2023-05-23T11:43:50.880Z,59.90
2023-05-23T11:46:44.005Z,60.10
2023-05-23T11:49:35.579Z,60.70
2023-05-23T11:52:24.979Z,61.30
2023-05-23T11:55:14.370Z,61.60
2023-05-23T11:58:05.235Z,61.60
2023-05-23T12:01:00.071Z,61.50
2023-05-23T12:03:52.590Z,61.20
2023-05-23T12:06:43.205Z,60.80
2023-05-23T12:09:32.588Z,60.50
2023-05-23T12:12:22.522Z,60.20
2023-05-23T12:15:16.665Z,59.90
2023-05-23T12:18:07.207Z,59.70
2023-05-23T12:21:03.174Z,59.50
2023-05-23T12:23:52.841Z,59.40
2023-05-23T12:26:52.717Z,59.20
2023-05-23T12:29:42.080Z,59.40
2023-05-23T12:32:32.779Z,59.40
2023-05-23T12:35:22.135Z,59.60
2023-05-23T12:38:16.480Z,59.80
2023-05-23T12:41:13.614Z,60.00
2023-05-23T12:44:04.708Z,60.10
2023-05-23T12:46:54.741Z,60.10
2023-05-23T12:49:46.963Z,60.00
2023-05-23T12:52:37.323Z,60.00
2023-05-23T12:55:26.729Z,59.80
2023-05-23T12:58:16.176Z,59.60
2023-05-23T13:01:05.968Z,59.70
2023-05-23T13:03:55.495Z,59.70
2023-05-23T13:06:46.823Z,59.60
2023-05-23T13:09:36.152Z,59.50
2023-05-23T13:12:25.826Z,59.30
2023-05-23T13:15:15.149Z,59.10
2023-05-23T13:18:04.967Z,58.70
2023-05-23T13:20:55.024Z,58.50
2023-05-23T13:23:45.916Z,58.20
2023-05-23T13:26:35.402Z,58.00
2023-05-23T13:29:24.745Z,58.10
2023-05-23T13:32:14.058Z,58.30
2023-05-23T13:35:03.531Z,58.60
2023-05-23T13:37:53.325Z,58.90
2023-05-23T13:40:44.163Z,59.20
2023-05-23T13:43:33.643Z,59.40
2023-05-23T13:46:23.207Z,59.40
2023-05-23T13:49:12.647Z,59.40
2023-05-23T13:52:02.107Z,59.40
2023-05-23T13:54:51.756Z,59.60
2023-05-23T13:57:42.465Z,60.10
2023-05-23T14:00:33.395Z,60.50
2023-05-23T14:03:24.617Z,60.40
2023-05-23T14:06:22.768Z,60.20
2023-05-23T14:09:12.561Z,59.90
2023-05-23T14:12:09.611Z,59.60
2023-05-23T14:15:00.793Z,59.80
2023-05-23T14:17:55.246Z,59.90
2023-05-23T14:20:44.710Z,60.00
2023-05-23T14:23:34.132Z,60.10
2023-05-23T14:26:23.482Z,60.30
2023-05-23T14:29:12.848Z,60.50
2023-05-23T14:32:04.174Z,60.90
2023-05-23T14:34:53.614Z,61.20
2023-05-23T14:37:42.972Z,61.80
2023-05-23T14:40:32.259Z,62.10
2023-05-23T14:43:21.732Z,62.10
2023-05-23T14:46:11.387Z,61.80
2023-05-23T14:49:02.283Z,61.90
2023-05-23T14:51:52.145Z,62.10
2023-05-23T14:54:41.762Z,61.80
2023-05-23T14:57:31.160Z,61.90
2023-05-23T15:00:21.187Z,62.20
2023-05-23T15:03:11.895Z,62.40
2023-05-23T15:06:04.345Z,62.40
2023-05-23T15:08:53.765Z,62.40
2023-05-23T15:11:45.080Z,62.30
2023-05-23T15:14:34.444Z,62.30
2023-05-23T15:17:26.591Z,62.30
2023-05-23T15:20:16.387Z,62.50
2023-05-23T15:23:07.301Z,62.40
2023-05-23T15:25:56.694Z,62.60
2023-05-23T15:28:46.073Z,62.40
2023-05-23T15:31:35.427Z,62.70
2023-05-23T15:34:24.820Z,62.80
2023-05-23T15:37:14.164Z,62.70
2023-05-23T15:40:05.709Z,62.50
2023-05-23T15:42:55.053Z,62.60
2023-05-23T15:45:44.452Z,62.70
2023-05-23T15:48:34.047Z,62.80
2023-05-23T15:51:27.899Z,63.10
2023-05-23T15:54:17.426Z,63.60
2023-05-23T15:57:08.678Z,63.20
2023-05-23T15:59:58.165Z,63.70
2023-05-23T16:02:47.579Z,63.80
2023-05-23T16:05:38.013Z,64.00
2023-05-23T16:08:27.437Z,63.90
2023-05-23T16:11:17.890Z,64.00
2023-05-23T16:14:09.218Z,64.10
2023-05-23T16:17:02.762Z,64.40
2023-05-23T16:19:52.256Z,64.10
2023-05-23T16:22:42.126Z,64.10
2023-05-23T16:25:31.522Z,64.20
2023-05-23T16:28:22.957Z,64.60
2023-05-23T16:31:16.845Z,65.20
2023-05-23T16:34:11.665Z,65.50
2023-05-23T16:37:05.576Z,64.80
2023-05-23T16:39:55.060Z,65.40
2023-05-23T16:42:45.224Z,65.60
2023-05-23T16:45:39.208Z,66.00
2023-05-23T16:48:31.795Z,65.90
2023-05-23T16:51:21.331Z,66.20
2023-05-23T16:54:10.685Z,66.10
2023-05-23T16:57:01.911Z,66.30
2023-05-23T16:59:51.611Z,66.40
2023-05-23T17:02:41.071Z,66.30
2023-05-23T17:05:32.077Z,66.40
2023-05-23T17:08:21.473Z,66.70
2023-05-23T17:11:10.847Z,66.40
2023-05-23T17:14:00.299Z,66.40
2023-05-23T17:16:49.639Z,66.80
2023-05-23T17:19:39.169Z,67.00
2023-05-23T17:22:29.997Z,67.20
2023-05-23T17:25:19.399Z,67.40
2023-05-23T17:28:08.785Z,67.20
2023-05-23T17:30:58.155Z,67.30
2023-05-23T17:33:47.506Z,67.40
2023-05-23T17:36:36.858Z,67.40
2023-05-23T17:39:27.610Z,67.50
2023-05-23T17:42:18.002Z,67.90
2023-05-23T17:45:09.455Z,67.80
2023-05-23T17:48:03.382Z,67.80
2023-05-23T17:50:53.061Z,67.80
2023-05-23T17:53:42.490Z,68.20
2023-05-23T17:56:33.199Z,68.40
2023-05-23T17:59:22.623Z,68.60
2023-05-23T18:02:12.027Z,68.30
2023-05-23T18:05:02.120Z,68.40
2023-05-23T18:07:51.589Z,68.30
2023-05-23T18:10:41.133Z,68.50
2023-05-23T18:13:32.094Z,68.20
2023-05-23T18:16:22.165Z,68.60
2023-05-23T18:19:11.637Z,68.70
2023-05-23T18:22:01.052Z,69.00
2023-05-23T18:24:50.427Z,69.30
2023-05-23T18:27:39.783Z,69.50
2023-05-23T18:30:30.732Z,69.50
2023-05-23T18:33:20.206Z,70.00
2023-05-23T18:36:09.865Z,69.90
2023-05-23T18:38:59.445Z,70.20
2023-05-23T18:41:49.018Z,70.30
2023-05-23T18:44:38.327Z,70.30
2023-05-23T18:47:29.132Z,70.20
2023-05-23T18:50:18.733Z,70.60
2023-05-23T18:53:08.165Z,70.60
2023-05-23T18:55:58.160Z,70.70
2023-05-23T18:58:47.605Z,70.70
2023-05-23T19:01:36.979Z,70.90
2023-05-23T19:04:27.810Z,71.10
2023-05-23T19:07:17.413Z,71.70
2023-05-23T19:10:08.108Z,71.70
2023-05-23T19:12:58.082Z,72.00
2023-05-23T19:15:47.536Z,72.30
2023-05-23T19:18:37.459Z,72.40
2023-05-23T19:21:28.457Z,72.40
2023-05-23T19:24:18.018Z,72.80
2023-05-23T19:27:07.740Z,72.40
2023-05-23T19:29:57.456Z,72.50
2023-05-23T19:32:46.859Z,72.90
2023-05-23T19:35:37.157Z,72.90
2023-05-23T19:38:27.981Z,72.90
2023-05-23T19:41:18.915Z,73.20
2023-05-23T19:44:10.570Z,72.80
2023-05-23T19:47:00.387Z,72.90
2023-05-23T19:49:49.832Z,73.10
2023-05-23T19:52:39.375Z,73.00
2023-05-23T19:55:30.040Z,73.00
2023-05-23T19:58:19.572Z,73.20
2023-05-23T20:01:08.987Z,73.10
2023-05-23T20:03:58.443Z,73.20
2023-05-23T20:06:47.818Z,72.90
2023-05-23T20:09:37.948Z,73.30
2023-05-23T20:12:29.244Z,73.30
2023-05-23T20:15:27.575Z,73.70
2023-05-23T20:18:28.536Z,73.60
2023-05-23T20:21:18.162Z,73.80
2023-05-23T20:24:07.944Z,74.00
2023-05-23T20:26:57.758Z,74.00
2023-05-23T20:29:48.719Z,74.20
2023-05-23T20:32:38.073Z,74.50
2023-05-23T20:35:27.503Z,74.30
2023-05-23T20:38:18.552Z,74.40
2023-05-23T20:41:08.040Z,74.40
2023-05-23T20:43:57.720Z,74.40
2023-05-23T20:46:48.497Z,74.70
2023-05-23T20:49:37.870Z,75.40
2023-05-23T20:52:27.257Z,75.20
2023-05-23T20:55:16.628Z,75.40
2023-05-23T20:58:06.879Z,75.50
2023-05-23T21:00:57.860Z,75.60
2023-05-23T21:03:48.570Z,75.90
2023-05-23T21:06:38.298Z,76.10
2023-05-23T21:09:27.639Z,75.80
2023-05-23T21:12:31.004Z,75.80
2023-05-23T21:15:20.566Z,75.60
2023-05-23T21:18:10.093Z,75.90
2023-05-23T21:21:01.078Z,76.20
2023-05-23T21:23:50.497Z,76.40
2023-05-23T21:26:39.808Z,76.00
2023-05-23T21:29:29.200Z,76.00
2023-05-23T21:32:18.560Z,76.10
2023-05-23T21:35:08.779Z,76.00
2023-05-23T21:37:59.513Z,76.20
2023-05-23T21:40:48.849Z,76.40
2023-05-23T21:43:38.143Z,76.00
2023-05-23T21:46:27.490Z,76.00
2023-05-23T21:49:16.966Z,75.90
2023-05-23T21:52:06.737Z,75.80
2023-05-23T21:54:57.429Z,75.80
2023-05-23T21:57:46.789Z,76.00
2023-05-23T22:00:36.153Z,75.60
2023-05-23T22:03:26.250Z,75.50
2023-05-23T22:06:15.909Z,75.50
2023-05-23T22:09:05.899Z,75.30
2023-05-23T22:11:56.672Z,75.40
2023-05-23T22:14:46.193Z,75.50
2023-05-23T22:17:35.705Z,75.30
2023-05-23T22:20:25.055Z,75.30
2023-05-23T22:23:17.156Z,75.20
2023-05-23T22:26:06.658Z,75.40
2023-05-23T22:28:57.716Z,75.50
2023-05-23T22:31:48.471Z,75.80
2023-05-23T22:34:38.534Z,75.70
2023-05-23T22:37:27.866Z,75.90
2023-05-23T22:40:17.379Z,75.90
2023-05-23T22:43:07.032Z,75.90
2023-05-23T22:45:58.397Z,75.80
2023-05-23T22:48:47.740Z,76.00
2023-05-23T22:51:37.268Z,75.90
2023-05-23T22:54:26.798Z,76.00
2023-05-23T22:57:16.171Z,76.10
2023-05-23T23:00:07.399Z,76.00
2023-05-23T23:02:58.426Z,75.90
2023-05-23T23:05:47.866Z,75.90
2023-05-23T23:08:37.550Z,75.50
2023-05-23T23:11:26.946Z,75.20
2023-05-23T23:14:16.430Z,75.00
2023-05-23T23:17:06.088Z,74.80
2023-05-23T23:19:57.856Z,74.40
2023-05-23T23:22:47.432Z,74.30
2023-05-23T23:25:37.110Z,74.20
2023-05-23T23:28:26.533Z,74.10
2023-05-23T23:31:16.098Z,74.00
2023-05-23T23:34:05.502Z,73.70
2023-05-23T23:36:56.557Z,73.60
2023-05-23T23:39:45.962Z,73.80
2023-05-23T23:42:35.318Z,73.50
2023-05-23T23:45:24.740Z,73.40
2023-05-23T23:48:14.926Z,73.30
2023-05-23T23:51:04.464Z,73.20
2023-05-23T23:53:56.453Z,73.20
2023-05-23T23:56:45.841Z,73.20
2023-05-23T23:59:35.225Z,73.10
